createdAt,value
2016-08-22T00:00:27.372Z,79.51
2016-08-22T00:02:31.647Z,79.90
2016-08-22T00:03:24.003Z,79.68
2016-08-22T00:04:40.609Z,79.83
2016-08-22T00:07:39.709Z,79.94
2016-08-22T00:10:23.352Z,79.33
2016-08-22T00:15:36.609Z,79.03
2016-08-22T00:16:38.427Z,78.84
2016-08-22T00:19:27.902Z,79.95
2016-08-22T00:20:24.786Z,78.98
2016-08-22T00:21:28.780Z,79.17
2016-08-22T00:22:30.144Z,79.70
2016-08-22T00:23:23.862Z,78.96
2016-08-22T00:25:29.209Z,80.43
2016-08-22T00:26:31.263Z,80.21
2016-08-22T00:28:30.834Z,79.62
2016-08-22T00:30:30.047Z,79.50
2016-08-22T00:31:29.223Z,79.31
2016-08-22T00:33:37.122Z,79.29
2016-08-22T00:34:39.502Z,79.05
2016-08-22T00:35:34.578Z,79.51
2016-08-22T00:36:27.927Z,80.10
2016-08-22T00:37:35.734Z,79.68
2016-08-22T00:38:40.273Z,79.56
2016-08-22T00:39:50.631Z,79.75
2016-08-22T00:40:46.100Z,79.67
2016-08-22T00:42:31.725Z,80.00
2016-08-22T00:44:35.246Z,80.32
2016-08-22T00:45:24.082Z,80.00
2016-08-22T00:47:28.962Z,80.80
2016-08-22T00:49:37.329Z,81.32
2016-08-22T00:50:30.661Z,80.82
2016-08-22T00:53:35.623Z,80.85
2016-08-22T00:54:28.816Z,80.93
2016-08-22T00:55:30.734Z,81.10
2016-08-22T00:56:44.704Z,81.02
2016-08-22T00:57:28.282Z,80.63
2016-08-22T00:58:26.653Z,80.92
2016-08-22T00:59:29.227Z,80.87
2016-08-22T01:00:36.311Z,81.22
2016-08-22T01:02:25.997Z,81.37
2016-08-22T01:03:25.497Z,81.28
2016-08-22T01:04:47.039Z,80.81
2016-08-22T01:06:42.473Z,81.48
2016-08-22T01:07:26.530Z,81.23
2016-08-22T01:09:36.859Z,81.29
2016-08-22T01:10:30.955Z,81.72
2016-08-22T01:13:28.771Z,81.93
2016-08-22T01:14:29.261Z,81.88
2016-08-22T01:15:29.379Z,81.50
2016-08-22T01:17:30.669Z,82.27
2016-08-22T01:18:38.648Z,81.90
2016-08-22T01:20:27.873Z,82.35
2016-08-22T01:21:35.944Z,82.33
2016-08-22T01:22:25.103Z,81.76
2016-08-22T01:24:00.210Z,81.77
2016-08-22T01:24:56.370Z,81.48
2016-08-22T01:25:53.577Z,81.96
2016-08-22T01:30:46.301Z,82.06
2016-08-22T01:31:50.011Z,82.50
2016-08-22T01:33:45.431Z,81.90
2016-08-22T01:35:24.726Z,82.45
2016-08-22T01:36:32.767Z,82.71
2016-08-22T01:38:40.845Z,82.11
2016-08-22T01:39:33.646Z,81.69
2016-08-22T01:40:27.323Z,82.11
2016-08-22T01:41:23.475Z,81.76
2016-08-22T01:44:28.665Z,82.02
2016-08-22T01:47:30.308Z,81.95
2016-08-22T01:49:24.991Z,83.79
2016-08-22T01:50:33.175Z,83.33
2016-08-22T01:52:28.116Z,82.92
2016-08-22T01:53:33.149Z,82.52
2016-08-22T01:54:24.393Z,82.97
2016-08-22T01:55:29.559Z,83.17
2016-08-22T01:56:35.670Z,83.20
2016-08-22T01:57:30.336Z,82.94
2016-08-22T01:59:22.985Z,83.27
2016-08-22T02:01:36.204Z,83.46
2016-08-22T02:02:31.342Z,82.98
2016-08-22T02:03:31.417Z,82.29
2016-08-22T02:04:28.272Z,82.03
2016-08-22T02:05:33.431Z,82.21
2016-08-22T02:08:24.555Z,82.47
2016-08-22T02:09:34.161Z,83.04
2016-08-22T02:10:41.725Z,83.20
2016-08-22T02:11:48.534Z,82.57
2016-08-22T02:13:34.096Z,82.43
2016-08-22T02:14:27.673Z,82.82
2016-08-22T02:15:57.024Z,82.61
2016-08-22T02:16:27.175Z,82.88
2016-08-22T02:17:27.780Z,83.23
2016-08-22T02:18:25.484Z,82.86
2016-08-22T02:20:42.764Z,82.22
2016-08-22T02:21:27.615Z,81.91
2016-08-22T02:24:30.727Z,82.97
2016-08-22T02:25:43.390Z,82.79
2016-08-22T02:26:29.539Z,82.70
2016-08-22T02:27:37.807Z,82.82
2016-08-22T02:28:34.643Z,83.65
2016-08-22T02:29:36.409Z,83.76
2016-08-22T02:30:39.894Z,82.77
2016-08-22T02:32:39.578Z,81.43
2016-08-22T02:33:25.734Z,81.88
2016-08-22T02:35:34.492Z,81.38
2016-08-22T02:36:33.500Z,82.03
2016-08-22T02:37:40.650Z,81.79
2016-08-22T02:39:42.193Z,80.27
2016-08-22T02:40:34.310Z,80.72
2016-08-22T02:43:30.453Z,81.44
2016-08-22T02:44:29.613Z,81.43
2016-08-22T02:46:28.232Z,81.72
2016-08-22T02:47:27.392Z,80.67
2016-08-22T02:49:34.718Z,81.15
2016-08-22T02:50:35.500Z,81.39
2016-08-22T02:51:36.727Z,81.66
2016-08-22T02:52:39.895Z,80.84
2016-08-22T02:53:27.534Z,81.11
2016-08-22T02:54:47.717Z,81.79
2016-08-22T02:55:28.296Z,81.33
2016-08-22T02:56:25.958Z,81.01
2016-08-22T02:57:32.758Z,81.11
2016-08-22T02:58:34.894Z,82.07
2016-08-22T02:59:42.926Z,82.18
2016-08-22T03:00:48.799Z,82.31
2016-08-22T03:01:33.917Z,82.01
2016-08-22T03:02:24.073Z,82.59
2016-08-22T03:03:42.220Z,82.85
2016-08-22T03:04:29.076Z,81.87
2016-08-22T03:05:32.122Z,81.06
2016-08-22T03:06:24.218Z,79.94
2016-08-22T03:07:28.765Z,81.07
2016-08-22T03:09:30.647Z,80.93
2016-08-22T03:10:27.762Z,81.57
2016-08-22T03:14:30.324Z,80.65
2016-08-22T03:15:25.491Z,80.80
2016-08-22T03:19:38.349Z,80.47
2016-08-22T03:20:36.143Z,80.49
2016-08-22T03:22:35.274Z,79.72
2016-08-22T03:23:40.946Z,80.17
2016-08-22T03:24:31.316Z,80.73
2016-08-22T03:25:23.618Z,81.37
2016-08-22T03:27:46.879Z,80.10
2016-08-22T03:28:31.689Z,80.70
2016-08-22T03:30:29.926Z,80.77
2016-08-22T03:31:37.966Z,80.21
2016-08-22T03:32:29.123Z,79.31
2016-08-22T03:34:34.833Z,79.48
2016-08-22T03:35:36.026Z,79.43
2016-08-22T03:36:31.094Z,79.62
2016-08-22T03:37:33.811Z,79.53
2016-08-22T03:38:30.819Z,79.29
2016-08-22T03:39:28.419Z,79.29
2016-08-22T03:40:27.299Z,79.19
2016-08-22T03:42:37.164Z,80.60
2016-08-22T03:43:34.531Z,81.40
2016-08-22T03:44:35.590Z,79.87
2016-08-22T03:45:30.039Z,79.60
2016-08-22T03:46:33.547Z,80.11
2016-08-22T03:47:28.019Z,80.85
2016-08-22T03:48:28.489Z,81.22
2016-08-22T03:49:24.484Z,80.28
2016-08-22T03:50:30.279Z,80.21
2016-08-22T03:51:32.071Z,80.18
2016-08-22T03:54:38.498Z,79.50
2016-08-22T03:55:29.713Z,80.03
2016-08-22T03:56:28.141Z,79.08
2016-08-22T03:58:37.397Z,79.87
2016-08-22T03:59:35.888Z,80.09
2016-08-22T04:01:25.855Z,81.03
2016-08-22T04:02:34.934Z,80.35
2016-08-22T04:03:34.065Z,81.23
2016-08-22T04:04:34.289Z,80.94
2016-08-22T04:05:29.517Z,81.32
2016-08-22T04:08:13.912Z,80.49
2016-08-22T04:08:44.928Z,81.09
2016-08-22T04:09:42.099Z,81.87
2016-08-22T04:10:45.928Z,81.02
2016-08-22T04:11:26.463Z,81.63
2016-08-22T04:12:41.916Z,81.96
2016-08-22T04:13:33.381Z,81.75
2016-08-22T04:17:00.739Z,81.90
2016-08-22T04:17:28.512Z,80.77
2016-08-22T04:23:30.696Z,80.92
2016-08-22T04:24:25.795Z,81.00
2016-08-22T04:26:25.042Z,81.29
2016-08-22T04:27:42.926Z,82.07
2016-08-22T04:28:38.102Z,82.87
2016-08-22T04:29:37.837Z,81.65
2016-08-22T04:30:25.446Z,81.73
2016-08-22T04:31:30.222Z,81.47
2016-08-22T04:32:26.539Z,80.68
2016-08-22T04:35:39.906Z,81.47
2016-08-22T04:36:26.828Z,82.50
2016-08-22T04:37:34.785Z,82.97
2016-08-22T04:38:42.706Z,81.97
2016-08-22T04:40:27.539Z,81.26
2016-08-22T04:41:35.295Z,80.92
2016-08-22T04:42:27.451Z,81.36
2016-08-22T04:43:27.634Z,81.74
2016-08-22T04:44:27.276Z,80.98
2016-08-22T04:45:35.360Z,81.47
2016-08-22T04:48:31.904Z,81.88
2016-08-22T04:49:24.711Z,81.65
2016-08-22T04:50:33.969Z,81.95
2016-08-22T04:52:25.858Z,82.10
2016-08-22T04:53:25.870Z,81.85
2016-08-22T04:53:37.499Z,81.99
2016-08-22T04:54:25.858Z,81.71
2016-08-22T04:55:31.150Z,81.47
2016-08-22T04:57:30.413Z,80.83
2016-08-22T04:58:28.547Z,80.62
2016-08-22T04:59:42.937Z,81.33
2016-08-22T05:02:29.652Z,81.65
2016-08-22T05:03:31.759Z,81.55
2016-08-22T05:04:36.573Z,80.49
2016-08-22T05:05:40.478Z,80.99
2016-08-22T05:07:31.484Z,81.98
2016-08-22T05:09:37.042Z,81.95
2016-08-22T05:10:25.425Z,80.51
2016-08-22T05:11:36.714Z,80.98
2016-08-22T05:12:35.856Z,81.06
2016-08-22T05:13:26.936Z,81.76
2016-08-22T05:14:45.322Z,81.35
2016-08-22T05:15:16.484Z,82.32
2016-08-22T05:16:30.353Z,81.19
2016-08-22T05:17:48.965Z,81.64
2016-08-22T05:18:19.484Z,81.44
2016-08-22T05:24:26.050Z,80.89
2016-08-22T05:25:34.538Z,80.16
2016-08-22T05:26:25.662Z,80.38
2016-08-22T05:28:40.592Z,80.14
2016-08-22T05:29:29.064Z,80.12
2016-08-22T05:30:23.480Z,80.35
2016-08-22T05:33:42.960Z,80.66
2016-08-22T05:34:29.901Z,79.95
2016-08-22T05:35:28.760Z,80.29
2016-08-22T05:36:37.258Z,80.68
2016-08-22T05:37:35.454Z,80.56
2016-08-22T05:38:25.973Z,80.50
2016-08-22T05:39:32.042Z,80.47
2016-08-22T05:40:23.957Z,80.61
2016-08-22T05:42:32.571Z,80.70
2016-08-22T05:43:40.163Z,80.71
2016-08-22T05:44:46.774Z,81.01
2016-08-22T05:45:30.502Z,81.37
2016-08-22T05:46:23.684Z,81.79
2016-08-22T05:47:49.929Z,81.86
2016-08-22T05:49:29.391Z,81.14
2016-08-22T05:50:37.132Z,81.18
2016-08-22T05:52:28.263Z,79.70
2016-08-22T05:54:31.737Z,79.97
2016-08-22T05:56:24.478Z,79.94
2016-08-22T05:57:48.365Z,80.55
2016-08-22T05:59:30.733Z,80.73
2016-08-22T06:00:27.117Z,80.92
2016-08-22T06:01:34.153Z,81.06
2016-08-22T06:02:29.006Z,81.60
2016-08-22T06:03:26.598Z,82.44
2016-08-22T06:04:42.570Z,82.57
2016-08-22T06:06:23.437Z,81.88
2016-08-22T06:07:33.357Z,81.47
2016-08-22T06:09:27.209Z,80.27
2016-08-22T06:10:36.090Z,80.50
2016-08-22T06:11:24.135Z,80.47
2016-08-22T06:12:30.135Z,79.61
2016-08-22T06:14:42.009Z,80.08
2016-08-22T06:15:37.317Z,80.14
2016-08-22T06:16:42.512Z,80.08
2016-08-22T06:19:33.708Z,79.41
2016-08-22T06:20:29.354Z,78.85
2016-08-22T06:22:46.174Z,79.22
2016-08-22T06:24:28.492Z,78.71
2016-08-22T06:25:23.982Z,78.56
2016-08-22T06:26:30.208Z,77.94
2016-08-22T06:27:24.546Z,78.73
2016-08-22T06:28:33.503Z,78.56
2016-08-22T06:29:23.611Z,77.99
2016-08-22T06:31:34.771Z,77.74
2016-08-22T06:33:42.985Z,77.22
2016-08-22T06:35:42.973Z,77.66
2016-08-22T06:36:29.124Z,77.26
2016-08-22T06:37:34.014Z,77.91
2016-08-22T06:38:27.765Z,77.13
2016-08-22T06:39:34.279Z,77.72
2016-08-22T06:40:25.050Z,77.33
2016-08-22T06:41:28.873Z,77.07
2016-08-22T06:42:40.284Z,77.20
2016-08-22T06:43:34.783Z,76.90
2016-08-22T06:44:37.707Z,77.03
2016-08-22T06:45:33.427Z,76.17
2016-08-22T06:47:55.263Z,76.19
2016-08-22T06:50:32.093Z,76.17
2016-08-22T06:51:25.795Z,75.58
2016-08-22T06:52:27.944Z,75.50
2016-08-22T06:53:38.507Z,75.08
2016-08-22T06:54:27.489Z,75.42
2016-08-22T06:55:24.982Z,75.50
2016-08-22T06:56:36.616Z,74.91
2016-08-22T06:57:38.219Z,75.41
2016-08-22T06:59:26.302Z,75.56
2016-08-22T07:01:47.807Z,74.93
2016-08-22T07:02:47.993Z,74.42
2016-08-22T07:03:51.360Z,74.97
2016-08-22T07:04:30.519Z,74.87
2016-08-22T07:05:29.431Z,74.52
2016-08-22T07:06:29.203Z,73.77
2016-08-22T07:07:29.242Z,73.50
2016-08-22T07:08:24.815Z,73.10
2016-08-22T07:12:24.104Z,72.33
2016-08-22T07:14:28.832Z,72.79
2016-08-22T07:15:30.421Z,72.38
2016-08-22T07:16:32.046Z,72.80
2016-08-22T07:17:30.595Z,73.12
2016-08-22T07:18:37.731Z,73.15
2016-08-22T07:19:30.843Z,72.43
2016-08-22T07:20:41.741Z,72.12
2016-08-22T07:22:30.547Z,72.82
2016-08-22T07:23:46.367Z,72.27
2016-08-22T07:24:36.338Z,71.09
2016-08-22T07:25:34.408Z,70.91
2016-08-22T07:26:26.089Z,71.23
2016-08-22T07:27:25.053Z,71.24
2016-08-22T07:28:40.153Z,71.74
2016-08-22T07:29:24.824Z,71.65
2016-08-22T07:30:34.051Z,70.37
2016-08-22T07:32:30.379Z,70.46
2016-08-22T07:33:35.156Z,71.04
2016-08-22T07:35:38.557Z,70.55
2016-08-22T07:36:53.162Z,70.28
2016-08-22T07:37:35.324Z,70.45
2016-08-22T07:38:31.311Z,70.51
2016-08-22T07:40:40.653Z,70.67
2016-08-22T07:41:35.390Z,70.81
2016-08-22T07:42:35.588Z,70.99
2016-08-22T07:43:27.462Z,71.01
2016-08-22T07:44:34.242Z,70.61
2016-08-22T07:45:24.606Z,70.37
2016-08-22T07:46:30.734Z,70.75
2016-08-22T07:47:29.070Z,70.99
2016-08-22T07:48:39.685Z,71.81
2016-08-22T07:49:24.515Z,70.50
2016-08-22T07:50:46.966Z,70.32
2016-08-22T07:51:42.672Z,70.60
2016-08-22T07:52:30.403Z,69.50
2016-08-22T07:53:38.979Z,69.76
2016-08-22T07:55:58.261Z,69.85
2016-08-22T07:56:31.800Z,69.20
2016-08-22T07:57:25.255Z,68.97
2016-08-22T07:58:25.458Z,69.28
2016-08-22T07:59:30.719Z,69.80
2016-08-22T08:00:36.622Z,70.23
2016-08-22T08:02:31.502Z,69.70
2016-08-22T08:03:32.049Z,69.12
2016-08-22T08:08:33.021Z,69.27
2016-08-22T08:11:41.111Z,68.09
2016-08-22T08:14:38.166Z,68.21
2016-08-22T08:16:31.716Z,66.37
2016-08-22T08:17:34.355Z,66.23
2016-08-22T08:19:42.155Z,66.06
2016-08-22T08:21:32.284Z,66.34
2016-08-22T08:22:33.492Z,65.83
2016-08-22T08:24:31.239Z,66.50
2016-08-22T08:25:30.266Z,65.38
2016-08-22T08:26:31.140Z,65.32
2016-08-22T08:27:43.626Z,66.87
2016-08-22T08:28:44.699Z,67.02
2016-08-22T08:29:29.232Z,67.31
2016-08-22T08:30:30.397Z,67.10
2016-08-22T08:31:58.549Z,67.25
2016-08-22T08:32:27.980Z,67.76
2016-08-22T08:34:25.265Z,67.90
2016-08-22T08:35:37.501Z,68.33
2016-08-22T08:36:31.539Z,68.10
2016-08-22T08:38:34.667Z,67.76
2016-08-22T08:39:25.266Z,67.59
2016-08-22T08:40:30.988Z,67.59
2016-08-22T08:41:23.058Z,67.63
2016-08-22T08:42:49.215Z,67.74
2016-08-22T08:43:23.288Z,67.79
2016-08-22T08:46:40.800Z,65.48
2016-08-22T08:47:31.136Z,66.81
2016-08-22T08:48:24.290Z,66.69
2016-08-22T08:49:34.978Z,66.56
2016-08-22T08:50:35.891Z,66.29
2016-08-22T08:51:34.586Z,66.56
2016-08-22T08:54:30.079Z,64.12
2016-08-22T08:55:37.010Z,64.97
2016-08-22T08:56:31.157Z,65.36
2016-08-22T08:57:29.291Z,65.38
2016-08-22T08:58:28.036Z,65.93
2016-08-22T09:00:34.287Z,65.86
2016-08-22T09:01:39.359Z,65.48
2016-08-22T09:02:43.295Z,65.39
2016-08-22T09:04:30.751Z,65.71
2016-08-22T09:09:30.976Z,64.14
2016-08-22T09:10:43.938Z,63.69
2016-08-22T09:11:45.973Z,63.65
2016-08-22T09:14:21.365Z,64.40
2016-08-22T09:15:23.087Z,64.96
2016-08-22T09:17:39.819Z,63.97
2016-08-22T09:18:25.233Z,63.89
2016-08-22T09:19:31.870Z,63.69
2016-08-22T09:20:33.610Z,64.69
2016-08-22T09:23:33.462Z,64.26
2016-08-22T09:25:34.761Z,63.73
2016-08-22T09:27:36.713Z,64.60
2016-08-22T09:28:24.220Z,64.93
2016-08-22T09:30:00.116Z,64.30
2016-08-22T09:30:25.250Z,63.13
2016-08-22T09:31:28.601Z,64.44
2016-08-22T09:33:05.451Z,64.44
2016-08-22T09:33:20.180Z,64.72
2016-08-22T09:34:48.591Z,63.05
2016-08-22T09:36:25.621Z,63.83
2016-08-22T09:37:34.939Z,64.30
2016-08-22T09:40:34.577Z,63.81
2016-08-22T09:42:24.000Z,61.91
2016-08-22T09:43:51.058Z,62.73
2016-08-22T09:44:30.191Z,61.24
2016-08-22T09:45:34.318Z,62.03
2016-08-22T09:46:31.354Z,62.96
2016-08-22T09:48:32.137Z,62.29
2016-08-22T09:49:33.711Z,62.51
2016-08-22T09:50:45.347Z,62.40
2016-08-22T09:51:35.317Z,62.57
2016-08-22T09:52:19.351Z,62.54
2016-08-22T09:54:41.239Z,61.25
2016-08-22T09:55:31.626Z,62.15
2016-08-22T09:57:24.111Z,62.09
2016-08-22T09:58:28.989Z,62.95
2016-08-22T09:59:53.909Z,62.99
2016-08-22T10:00:38.975Z,63.69
2016-08-22T10:01:37.108Z,63.67
2016-08-22T10:02:27.117Z,62.91
2016-08-22T10:03:35.374Z,61.95
2016-08-22T10:06:36.332Z,60.59
2016-08-22T10:07:38.072Z,59.80
2016-08-22T10:11:36.332Z,60.99
2016-08-22T10:12:48.595Z,60.63
2016-08-22T10:15:36.891Z,59.18
2016-08-22T10:16:26.848Z,59.65
2016-08-22T10:19:31.973Z,58.50
2016-08-22T10:22:28.645Z,58.51
2016-08-22T10:25:48.739Z,58.34
2016-08-22T10:26:25.890Z,58.92
2016-08-22T10:27:36.636Z,59.61
2016-08-22T10:30:28.589Z,59.45
2016-08-22T10:31:32.189Z,59.53
2016-08-22T10:32:32.445Z,59.48
2016-08-22T10:33:27.029Z,59.24
2016-08-22T10:34:33.335Z,59.97
2016-08-22T10:35:30.498Z,60.10
2016-08-22T10:45:34.631Z,57.99
2016-08-22T10:46:20.281Z,57.76
2016-08-22T10:47:30.627Z,58.21
2016-08-22T10:48:39.933Z,58.31
2016-08-22T10:52:24.303Z,58.41
2016-08-22T10:53:31.422Z,59.53
2016-08-22T10:54:37.828Z,58.86
2016-08-22T10:58:48.607Z,60.87
2016-08-22T11:00:25.174Z,60.39
2016-08-22T11:03:34.663Z,61.12
2016-08-22T11:05:31.811Z,60.85
2016-08-22T11:09:11.709Z,57.73
2016-08-22T11:09:35.305Z,58.23
2016-08-22T11:11:29.365Z,58.96
2016-08-22T11:12:29.926Z,57.04
2016-08-22T11:13:33.235Z,56.24
2016-08-22T11:14:33.431Z,57.21
2016-08-22T11:16:36.938Z,57.09
2016-08-22T11:17:34.220Z,56.11
2016-08-22T11:19:10.520Z,56.09
2016-08-22T11:19:39.043Z,56.26
2016-08-22T11:20:49.898Z,55.78
2016-08-22T11:21:27.077Z,55.92
2016-08-22T11:22:47.130Z,55.89
2016-08-22T11:23:35.387Z,55.61
2016-08-22T11:24:29.651Z,55.93
2016-08-22T11:25:25.003Z,56.16
2016-08-22T11:26:40.858Z,56.28
2016-08-22T11:28:30.785Z,56.53
2016-08-22T11:29:30.577Z,56.27
2016-08-22T11:31:55.513Z,57.23
2016-08-22T11:32:29.651Z,57.69
2016-08-22T11:33:39.988Z,57.66
2016-08-22T11:34:35.059Z,57.39
2016-08-22T11:35:39.802Z,58.02
2016-08-22T11:36:27.912Z,57.83
2016-08-22T11:37:28.048Z,57.62
2016-08-22T11:38:25.228Z,58.05
2016-08-22T11:39:35.069Z,58.20
2016-08-22T11:40:30.737Z,58.52
2016-08-22T11:41:39.219Z,58.38
2016-08-22T11:42:34.185Z,58.70
2016-08-22T11:44:28.456Z,59.05
2016-08-22T11:46:43.511Z,58.47
2016-08-22T11:47:30.343Z,56.80
2016-08-22T11:48:32.482Z,56.43
2016-08-22T11:49:37.700Z,57.21
2016-08-22T11:50:24.947Z,57.12
2016-08-22T11:51:40.731Z,56.81
2016-08-22T11:52:28.375Z,55.86
2016-08-22T11:53:40.507Z,56.45
2016-08-22T11:54:29.385Z,55.66
2016-08-22T11:55:32.766Z,55.71
2016-08-22T11:56:33.042Z,56.14
2016-08-22T11:57:38.769Z,56.10
2016-08-22T11:58:29.099Z,56.30
2016-08-22T11:59:31.400Z,56.11
2016-08-22T12:00:20.388Z,55.93
2016-08-22T12:01:38.849Z,56.30
2016-08-22T12:02:26.657Z,55.87
2016-08-22T12:03:37.514Z,55.67
2016-08-22T12:05:30.533Z,56.13
2016-08-22T12:06:30.772Z,56.65
2016-08-22T12:08:30.016Z,56.25
2016-08-22T12:09:33.176Z,54.92
2016-08-22T12:10:24.647Z,55.45
2016-08-22T12:11:24.116Z,56.18
2016-08-22T12:12:46.503Z,56.04
2016-08-22T12:13:39.130Z,56.95
2016-08-22T12:15:29.666Z,57.78
2016-08-22T12:20:32.125Z,57.95
2016-08-22T12:21:45.511Z,57.41
2016-08-22T12:23:39.005Z,57.27
2016-08-22T12:24:38.795Z,57.36
2016-08-22T12:26:32.879Z,57.83
2016-08-22T12:27:39.156Z,57.34
2016-08-22T12:28:31.351Z,57.29
2016-08-22T12:29:41.944Z,56.97
2016-08-22T12:31:54.785Z,56.42
2016-08-22T12:34:29.100Z,56.24
2016-08-22T12:35:24.677Z,56.11
2016-08-22T12:36:37.021Z,55.09
2016-08-22T12:37:29.563Z,54.37
2016-08-22T12:38:31.085Z,56.41
2016-08-22T12:40:24.701Z,53.36
2016-08-22T12:41:25.385Z,54.47
2016-08-22T12:42:43.490Z,55.10
2016-08-22T12:44:23.908Z,55.73
2016-08-22T12:45:33.984Z,56.65
2016-08-22T12:46:39.620Z,56.32
2016-08-22T12:49:39.520Z,56.53
2016-08-22T12:50:28.898Z,55.30
2016-08-22T12:51:53.886Z,55.91
2016-08-22T12:52:35.754Z,55.93
2016-08-22T12:53:31.208Z,54.80
2016-08-22T12:54:28.756Z,54.38
2016-08-22T12:55:39.980Z,56.10
2016-08-22T12:57:28.851Z,53.09
2016-08-22T12:58:31.449Z,53.46
2016-08-22T13:01:37.088Z,52.12
2016-08-22T13:02:24.717Z,52.76
2016-08-22T13:04:46.828Z,51.61
2016-08-22T13:05:25.308Z,52.38
2016-08-22T13:07:37.852Z,51.30
2016-08-22T13:08:34.776Z,51.05
2016-08-22T13:09:38.488Z,52.02
2016-08-22T13:10:31.038Z,47.20
2016-08-22T13:11:33.480Z,48.53
2016-08-22T13:16:33.506Z,47.97
2016-08-22T13:18:37.911Z,45.77
2016-08-22T13:20:25.613Z,46.39
2016-08-22T13:21:47.877Z,46.32
2016-08-22T13:23:23.513Z,48.14
2016-08-22T13:26:34.417Z,47.24
2016-08-22T13:27:31.536Z,47.68
2016-08-22T13:28:56.743Z,45.29
2016-08-22T13:29:29.094Z,43.50
2016-08-22T13:33:37.173Z,44.96
2016-08-22T13:34:29.617Z,44.88
2016-08-22T13:35:36.702Z,43.88
2016-08-22T13:36:40.829Z,44.90
2016-08-22T13:37:39.449Z,45.18
2016-08-22T13:38:51.615Z,43.53
2016-08-22T13:40:41.183Z,43.91
2016-08-22T13:41:30.548Z,44.18
2016-08-22T13:42:35.040Z,44.63
2016-08-22T13:43:24.587Z,45.90
2016-08-22T13:44:31.692Z,43.99
2016-08-22T13:45:32.885Z,44.01
2016-08-22T13:46:52.033Z,45.00
2016-08-22T13:47:33.297Z,45.43
2016-08-22T13:48:36.482Z,44.36
2016-08-22T13:49:32.211Z,43.02
2016-08-22T13:50:22.356Z,44.12
2016-08-22T13:51:41.358Z,44.23
2016-08-22T13:52:48.538Z,44.44
2016-08-22T13:53:35.901Z,44.30
2016-08-22T13:54:34.493Z,44.41
2016-08-22T13:55:36.576Z,44.33
2016-08-22T13:56:25.996Z,44.29
2016-08-22T13:57:23.554Z,44.74
2016-08-22T13:58:41.781Z,44.28
2016-08-22T13:59:35.722Z,44.71
2016-08-22T14:00:32.338Z,45.41
2016-08-22T14:02:33.033Z,43.96
2016-08-22T14:03:42.729Z,43.88
2016-08-22T14:05:27.280Z,44.08
2016-08-22T14:06:25.334Z,44.38
2016-08-22T14:08:01.965Z,41.61
2016-08-22T14:08:35.564Z,42.98
2016-08-22T14:09:28.213Z,43.60
2016-08-22T14:10:49.072Z,43.97
2016-08-22T14:11:26.727Z,43.99
2016-08-22T14:12:24.916Z,44.00
2016-08-22T14:13:22.275Z,44.96
2016-08-22T14:14:36.469Z,44.52
2016-08-22T14:16:24.793Z,43.25
2016-08-22T14:17:33.733Z,44.41
2016-08-22T14:18:25.530Z,45.28
2016-08-22T14:19:25.327Z,43.86
2016-08-22T14:20:25.114Z,44.24
2016-08-22T14:21:30.330Z,45.16
2016-08-22T14:23:36.269Z,44.77
2016-08-22T14:24:41.479Z,46.13
2016-08-22T14:25:40.988Z,46.44
2016-08-22T14:26:26.918Z,44.49
2016-08-22T14:27:30.985Z,45.23
2016-08-22T14:28:38.011Z,42.89
2016-08-22T14:29:38.532Z,43.10
2016-08-22T14:30:33.682Z,43.65
2016-08-22T14:31:31.706Z,44.18
2016-08-22T14:32:37.522Z,44.20
2016-08-22T14:33:33.857Z,42.95
2016-08-22T14:34:26.513Z,43.75
2016-08-22T14:35:33.450Z,43.44
2016-08-22T14:36:30.362Z,43.47
2016-08-22T14:37:35.789Z,43.47
2016-08-22T14:38:32.164Z,43.67
2016-08-22T14:39:39.593Z,44.13
2016-08-22T14:40:33.761Z,44.52
2016-08-22T14:41:45.006Z,44.53
2016-08-22T14:42:39.534Z,44.62
2016-08-22T14:43:34.425Z,44.12
2016-08-22T14:44:40.563Z,44.49
2016-08-22T14:45:15.940Z,44.28
2016-08-22T14:46:28.025Z,42.42
2016-08-22T14:47:25.588Z,43.65
2016-08-22T14:48:30.868Z,42.76
2016-08-22T14:49:37.566Z,40.68
2016-08-22T14:50:43.968Z,42.20
2016-08-22T14:51:28.781Z,41.50
2016-08-22T14:53:40.368Z,42.39
2016-08-22T14:54:34.645Z,43.49
2016-08-22T14:55:24.841Z,43.40
2016-08-22T14:56:31.671Z,43.48
2016-08-22T14:57:35.234Z,43.73
2016-08-22T14:58:34.769Z,44.13
2016-08-22T14:59:29.009Z,44.45
2016-08-22T15:00:40.022Z,45.74
2016-08-22T15:01:24.891Z,46.05
2016-08-22T15:02:27.827Z,45.62
2016-08-22T15:03:31.510Z,45.19
2016-08-22T15:04:29.438Z,43.67
2016-08-22T15:05:56.739Z,43.16
2016-08-22T15:06:33.669Z,43.75
2016-08-22T15:07:30.849Z,44.08
2016-08-22T15:08:31.313Z,45.10
2016-08-22T15:09:30.541Z,41.42
2016-08-22T15:10:28.711Z,42.49
2016-08-22T15:11:35.189Z,42.62
2016-08-22T15:12:47.834Z,42.60
2016-08-22T15:13:51.309Z,43.57
2016-08-22T15:14:24.285Z,44.25
2016-08-22T15:15:32.309Z,44.59
2016-08-22T15:16:36.498Z,44.66
2016-08-22T15:17:29.682Z,44.42
2016-08-22T15:18:47.471Z,45.38
2016-08-22T15:19:38.243Z,44.83
2016-08-22T15:20:35.070Z,44.31
2016-08-22T15:21:34.065Z,44.99
2016-08-22T15:22:30.742Z,45.28
2016-08-22T15:23:31.302Z,44.60
2016-08-22T15:25:45.499Z,44.77
2016-08-22T15:26:29.102Z,44.40
2016-08-22T15:27:23.613Z,43.93
2016-08-22T15:28:26.272Z,44.32
2016-08-22T15:30:37.196Z,45.41
2016-08-22T15:32:37.887Z,44.66
2016-08-22T15:33:40.000Z,44.24
2016-08-22T15:34:34.971Z,44.75
2016-08-22T15:35:19.579Z,43.74
2016-08-22T15:36:29.333Z,44.13
2016-08-22T15:37:32.999Z,44.87
2016-08-22T15:38:35.512Z,45.19
2016-08-22T15:39:31.623Z,44.37
2016-08-22T15:40:23.863Z,44.38
2016-08-22T15:42:24.323Z,46.78
2016-08-22T15:43:30.460Z,46.12
2016-08-22T15:44:33.604Z,45.78
2016-08-22T15:45:30.063Z,44.97
2016-08-22T15:46:23.663Z,43.23
2016-08-22T15:47:49.529Z,42.04
2016-08-22T15:48:33.705Z,41.78
2016-08-22T15:49:25.821Z,39.95
2016-08-22T15:50:35.139Z,38.50
2016-08-22T15:51:30.984Z,37.75
2016-08-22T15:52:19.410Z,36.73
2016-08-22T15:53:27.576Z,34.78
2016-08-22T15:54:28.909Z,33.85
2016-08-22T15:55:25.355Z,32.53
2016-08-22T15:56:18.281Z,31.81
2016-08-22T15:57:34.108Z,30.92
2016-08-22T15:59:29.698Z,30.66
2016-08-22T16:00:25.878Z,29.71
2016-08-22T16:01:26.755Z,29.55
2016-08-22T16:02:27.508Z,29.49
2016-08-22T16:03:35.643Z,28.80
2016-08-22T16:04:32.410Z,28.91
2016-08-22T16:06:29.799Z,29.37
2016-08-22T16:08:32.149Z,29.51
2016-08-22T16:09:20.698Z,29.65
2016-08-22T16:10:17.736Z,29.52
2016-08-22T16:11:17.498Z,29.37
2016-08-22T16:12:19.451Z,28.64
2016-08-22T16:14:23.614Z,28.88
2016-08-22T16:15:23.634Z,27.75
2016-08-22T16:16:36.220Z,31.39
2016-08-22T16:17:25.406Z,34.28
2016-08-22T16:18:18.716Z,36.79
2016-08-22T16:19:14.210Z,37.70
2016-08-22T16:20:32.370Z,39.28
2016-08-22T16:21:43.021Z,40.78
2016-08-22T16:22:22.589Z,42.61
2016-08-22T16:23:25.522Z,43.08
2016-08-22T16:24:23.857Z,39.63
2016-08-22T16:25:25.573Z,36.19
2016-08-22T16:26:32.338Z,34.25
2016-08-22T16:27:23.694Z,34.24
2016-08-22T16:28:25.055Z,35.93
2016-08-22T16:29:23.753Z,38.61
2016-08-22T16:30:27.170Z,39.26
2016-08-22T16:31:49.377Z,40.49
2016-08-22T16:32:28.922Z,41.69
2016-08-22T16:33:25.922Z,42.53
2016-08-22T16:34:24.957Z,43.21
2016-08-22T16:35:32.405Z,42.66
2016-08-22T16:36:21.283Z,42.75
2016-08-22T16:37:29.147Z,42.96
2016-08-22T16:38:26.602Z,43.33
2016-08-22T16:39:34.894Z,43.62
2016-08-22T16:40:24.426Z,43.16
2016-08-22T16:41:30.337Z,43.50
2016-08-22T16:42:29.875Z,44.28
2016-08-22T16:43:29.542Z,44.44
2016-08-22T16:44:42.499Z,44.93
2016-08-22T16:45:37.774Z,44.84
2016-08-22T16:46:25.991Z,44.87
2016-08-22T16:47:34.764Z,45.20
2016-08-22T16:48:36.355Z,45.65
2016-08-22T16:49:34.755Z,44.69
2016-08-22T16:50:29.099Z,45.07
2016-08-22T16:51:38.288Z,45.08
2016-08-22T16:52:37.426Z,45.82
2016-08-22T16:53:29.743Z,46.08
2016-08-22T16:54:49.487Z,46.06
2016-08-22T16:55:23.356Z,46.32
2016-08-22T16:56:27.499Z,46.38
2016-08-22T16:57:22.246Z,46.57
2016-08-22T16:58:30.440Z,46.73
2016-08-22T16:59:46.187Z,46.84
2016-08-22T17:02:36.560Z,47.38
2016-08-22T17:03:25.549Z,49.08
2016-08-22T17:04:40.171Z,48.48
2016-08-22T17:05:54.015Z,47.72
2016-08-22T17:07:23.093Z,47.73
2016-08-22T17:08:31.982Z,48.17
2016-08-22T17:10:10.753Z,48.18
2016-08-22T17:10:28.785Z,48.19
2016-08-22T17:11:40.959Z,48.34
2016-08-22T17:12:32.098Z,48.21